createdAt,value
2018-09-18T00:00:52.094Z,100496.00
2018-09-18T00:03:20.438Z,100493.00
2018-09-18T00:05:48.600Z,100490.00
2018-09-18T00:08:16.648Z,100497.00
2018-09-18T00:10:44.801Z,100493.00
2018-09-18T00:13:13.044Z,100495.00
2018-09-18T00:15:41.208Z,100489.00
2018-09-18T00:18:09.225Z,100492.00
2018-09-18T00:20:37.447Z,100487.00
2018-09-18T00:23:05.642Z,100492.00
2018-09-18T00:25:34.078Z,100490.00
2018-09-18T00:28:02.115Z,100489.00
2018-09-18T00:30:30.254Z,100484.00
2018-09-18T00:32:58.329Z,100488.00
2018-09-18T00:35:26.403Z,100484.00
2018-09-18T00:37:55.173Z,100490.00
2018-09-18T00:40:23.188Z,100489.00
2018-09-18T00:42:51.266Z,100481.00
2018-09-18T00:45:19.346Z,100478.00
2018-09-18T00:47:47.450Z,100476.00
2018-09-18T00:50:15.524Z,100478.00
2018-09-18T00:52:43.532Z,100481.00
2018-09-18T00:55:11.570Z,100488.00
2018-09-18T00:57:39.610Z,100484.00
2018-09-18T01:00:07.925Z,100479.00
2018-09-18T01:02:35.939Z,100482.00
2018-09-18T01:05:04.044Z,100475.00
2018-09-18T01:07:32.139Z,100476.00
2018-09-18T01:10:00.228Z,100475.00
2018-09-18T01:12:28.245Z,100464.00
2018-09-18T01:14:56.361Z,100464.00
2018-09-18T01:17:24.542Z,100473.00
2018-09-18T01:19:52.759Z,100476.00
2018-09-18T01:22:20.739Z,100458.00
2018-09-18T01:24:48.761Z,100466.00
2018-09-18T01:27:16.871Z,100461.00
2018-09-18T01:29:44.900Z,100457.00
2018-09-18T01:32:12.900Z,100463.00
2018-09-18T01:34:40.947Z,100463.00
2018-09-18T01:37:08.994Z,100459.00
2018-09-18T01:39:36.990Z,100452.00
2018-09-18T01:42:05.374Z,100454.00
2018-09-18T01:44:33.556Z,100456.00
2018-09-18T01:47:01.604Z,100469.00
2018-09-18T01:49:29.605Z,100456.00
2018-09-18T01:51:57.689Z,100460.00
2018-09-18T01:54:25.712Z,100454.00
2018-09-18T01:56:53.857Z,100453.00
2018-09-18T01:59:22.069Z,100449.00
2018-09-18T02:01:50.137Z,100448.00
2018-09-18T02:04:18.217Z,100448.00
2018-09-18T02:06:46.336Z,100451.00
2018-09-18T02:09:14.418Z,100455.00
2018-09-18T02:11:42.430Z,100447.00
2018-09-18T02:14:10.508Z,100448.00
2018-09-18T02:16:38.572Z,100443.00
2018-09-18T02:19:06.682Z,100445.00
2018-09-18T02:21:35.067Z,100442.00
2018-09-18T02:24:03.285Z,100437.00
2018-09-18T02:26:31.669Z,100444.00
2018-09-18T02:28:59.906Z,100442.00
2018-09-18T02:31:27.963Z,100442.00
2018-09-18T02:33:56.044Z,100443.00
2018-09-18T02:36:24.113Z,100442.00
2018-09-18T02:38:52.147Z,100432.00
2018-09-18T02:41:20.248Z,100439.00
2018-09-18T02:43:48.338Z,100434.00
2018-09-18T02:46:16.511Z,100438.00
2018-09-18T02:48:44.596Z,100439.00
2018-09-18T02:51:12.644Z,100435.00
2018-09-18T02:53:40.725Z,100436.00
2018-09-18T02:56:08.792Z,100439.00
2018-09-18T02:58:37.011Z,100436.00
2018-09-18T03:01:05.045Z,100443.00
2018-09-18T03:03:33.164Z,100438.00
2018-09-18T03:06:01.172Z,100433.00
2018-09-18T03:08:29.201Z,100437.00
2018-09-18T03:10:57.263Z,100438.00
2018-09-18T03:13:25.377Z,100436.00
2018-09-18T03:15:53.634Z,100241.00
2018-09-18T03:18:21.843Z,100442.00
2018-09-18T03:20:50.039Z,100451.00
2018-09-18T03:23:18.027Z,100447.00
2018-09-18T03:25:46.077Z,100441.00
2018-09-18T03:28:14.222Z,100436.00
2018-09-18T03:30:42.285Z,100435.00
2018-09-18T03:33:10.440Z,100443.00
2018-09-18T03:35:38.550Z,100437.00
2018-09-18T03:38:06.516Z,100442.00
2018-09-18T03:40:34.509Z,100446.00
2018-09-18T03:43:02.672Z,100435.00
2018-09-18T03:45:30.733Z,100442.00
2018-09-18T03:47:58.829Z,100441.00
2018-09-18T03:50:26.853Z,100439.00
2018-09-18T03:52:54.842Z,100438.00
2018-09-18T03:55:22.885Z,100436.00
2018-09-18T03:57:50.984Z,100438.00
2018-09-18T04:00:19.008Z,100439.00
2018-09-18T04:02:47.099Z,100429.00
2018-09-18T04:05:15.123Z,100432.00
2018-09-18T04:07:43.142Z,100427.00
2018-09-18T04:10:11.165Z,100431.00
2018-09-18T04:12:39.168Z,100442.00
2018-09-18T04:15:07.256Z,100446.00
2018-09-18T04:17:35.346Z,100439.00
2018-09-18T04:20:03.559Z,100436.00
2018-09-18T04:22:31.557Z,100440.00
2018-09-18T04:24:59.587Z,100435.00
2018-09-18T04:27:27.612Z,100428.00
2018-09-18T04:29:55.601Z,100431.00
2018-09-18T04:32:23.604Z,100437.00
2018-09-18T04:34:51.633Z,100432.00
2018-09-18T04:37:20.890Z,100425.00
2018-09-18T04:39:48.890Z,100433.00
2018-09-18T04:42:16.910Z,100431.00
2018-09-18T04:44:44.983Z,100430.00
2018-09-18T04:47:13.028Z,100427.00
2018-09-18T04:49:41.079Z,100432.00
2018-09-18T04:52:09.099Z,100434.00
2018-09-18T04:54:37.425Z,100434.00
2018-09-18T04:57:05.838Z,100432.00
2018-09-18T04:59:33.903Z,100425.00
2018-09-18T05:02:02.433Z,100374.00
2018-09-18T05:04:30.463Z,100427.00
2018-09-18T05:09:36.088Z,100432.00
2018-09-18T05:12:04.248Z,100430.00
2018-09-18T05:14:32.625Z,100443.00
2018-09-18T05:17:01.390Z,100442.00
2018-09-18T05:19:29.447Z,100444.00
2018-09-18T05:21:57.627Z,100437.00
2018-09-18T05:24:26.737Z,100439.00
2018-09-18T05:26:55.977Z,100448.00
2018-09-18T05:29:25.073Z,100449.00
2018-09-18T05:31:53.140Z,100451.00
2018-09-18T05:34:22.083Z,100459.00
2018-09-18T05:36:50.459Z,100456.00
2018-09-18T05:39:18.491Z,100456.00
2018-09-18T05:41:47.534Z,100461.00
2018-09-18T05:44:15.626Z,100460.00
2018-09-18T05:46:44.033Z,100476.00
2018-09-18T05:49:12.125Z,100461.00
2018-09-18T05:51:41.686Z,100453.00
2018-09-18T05:54:09.788Z,100453.00
2018-09-18T05:56:37.830Z,100457.00
2018-09-18T05:59:05.992Z,100455.00
2018-09-18T06:01:34.147Z,100454.00
2018-09-18T06:04:02.291Z,100460.00
2018-09-18T06:06:30.357Z,100453.00
2018-09-18T06:08:58.428Z,100455.00
2018-09-18T06:11:26.567Z,100471.00
2018-09-18T06:13:55.444Z,100474.00
2018-09-18T06:16:23.558Z,100468.00
2018-09-18T06:18:51.710Z,100481.00
2018-09-18T06:21:19.844Z,100477.00
2018-09-18T06:23:47.938Z,100484.00
2018-09-18T06:26:16.091Z,100489.00
2018-09-18T06:28:44.267Z,100485.00
2018-09-18T06:31:12.281Z,100487.00
2018-09-18T06:33:40.355Z,100477.00
2018-09-18T06:36:08.556Z,100477.00
2018-09-18T06:38:36.910Z,100473.00
2018-09-18T06:41:05.056Z,100478.00
2018-09-18T06:43:33.165Z,100477.00
2018-09-18T06:46:01.510Z,100478.00
2018-09-18T06:48:29.734Z,100484.00
2018-09-18T06:50:57.833Z,100476.00
2018-09-18T06:53:26.072Z,100494.00
2018-09-18T06:55:54.225Z,100493.00
2018-09-18T06:58:22.857Z,100496.00
2018-09-18T07:00:50.898Z,100494.00
2018-09-18T07:03:19.027Z,100484.00
2018-09-18T07:05:47.154Z,100493.00
2018-09-18T07:08:15.341Z,100497.00
2018-09-18T07:10:43.431Z,100493.00
2018-09-18T07:13:11.608Z,100488.00
2018-09-18T07:15:39.965Z,100486.00
2018-09-18T07:18:08.188Z,100502.00
2018-09-18T07:20:37.016Z,100495.00
2018-09-18T07:23:05.206Z,100493.00
2018-09-18T07:25:33.447Z,100500.00
2018-09-18T07:28:01.748Z,100497.00
2018-09-18T07:30:29.913Z,100495.00
2018-09-18T07:32:58.077Z,100505.00
2018-09-18T07:35:26.385Z,100499.00
2018-09-18T07:37:54.495Z,100510.00
2018-09-18T07:40:22.605Z,100505.00
2018-09-18T07:42:51.265Z,100503.00
2018-09-18T07:45:19.406Z,100494.00
2018-09-18T07:47:54.101Z,100498.00
2018-09-18T07:50:22.171Z,100492.00
2018-09-18T07:52:50.346Z,100499.00
2018-09-18T07:55:18.466Z,100498.00
2018-09-18T07:57:46.729Z,100495.00
2018-09-18T08:00:14.936Z,100496.00
2018-09-18T08:02:43.146Z,100490.00
2018-09-18T08:05:11.313Z,100500.00
2018-09-18T08:07:39.489Z,100498.00
2018-09-18T08:10:07.609Z,100500.00
2018-09-18T08:12:36.785Z,100492.00
2018-09-18T08:15:06.004Z,100494.00
2018-09-18T08:17:34.151Z,100496.00
2018-09-18T08:20:02.346Z,100500.00
2018-09-18T08:22:30.519Z,100494.00
2018-09-18T08:24:58.762Z,100495.00
2018-09-18T08:27:27.193Z,100449.00
2018-09-18T08:29:55.331Z,100495.00
2018-09-18T08:32:23.665Z,100497.00
2018-09-18T08:34:51.816Z,100491.00
2018-09-18T08:37:20.038Z,100496.00
2018-09-18T08:39:48.356Z,100483.00
2018-09-18T08:42:16.417Z,100497.00
2018-09-18T08:44:44.588Z,100493.00
2018-09-18T08:47:13.199Z,100488.00
2018-09-18T08:49:41.382Z,100487.00
2018-09-18T08:52:09.607Z,100488.00
2018-09-18T08:54:38.260Z,100482.00
2018-09-18T08:57:07.321Z,100477.00
2018-09-18T08:59:35.359Z,100501.00
2018-09-18T09:02:03.538Z,100483.00
2018-09-18T09:04:31.707Z,100482.00
2018-09-18T09:06:59.785Z,100479.00
2018-09-18T09:09:28.063Z,100474.00
2018-09-18T09:11:56.042Z,100487.00
2018-09-18T09:14:24.839Z,100481.00
2018-09-18T09:16:52.966Z,100476.00
2018-09-18T09:19:21.076Z,100480.00
2018-09-18T09:21:49.293Z,100477.00
2018-09-18T09:24:17.359Z,100480.00
2018-09-18T09:26:45.738Z,100476.00
2018-09-18T09:29:13.824Z,100486.00
2018-09-18T09:31:41.844Z,100480.00
2018-09-18T09:34:09.898Z,100479.00
2018-09-18T09:36:38.298Z,100476.00
2018-09-18T09:39:09.355Z,100476.00
2018-09-18T09:41:37.466Z,100479.00
2018-09-18T09:44:05.711Z,100476.00
2018-09-18T09:46:33.875Z,100473.00
2018-09-18T09:49:02.339Z,100474.00
2018-09-18T09:51:30.447Z,100468.00
2018-09-18T09:53:58.696Z,100465.00
2018-09-18T09:56:27.071Z,100462.00
2018-09-18T09:58:55.170Z,100450.00
2018-09-18T10:01:28.950Z,100451.00
2018-09-18T10:03:57.033Z,100456.00
2018-09-18T10:06:25.571Z,100446.00
2018-09-18T10:08:53.654Z,100445.00
2018-09-18T10:11:21.910Z,100449.00
2018-09-18T10:13:50.022Z,100452.00
2018-09-18T10:16:18.013Z,100447.00
2018-09-18T10:18:46.178Z,100440.00
2018-09-18T10:21:14.247Z,100442.00
2018-09-18T10:23:42.429Z,100439.00
2018-09-18T10:26:10.567Z,100446.00
2018-09-18T10:28:38.657Z,100439.00
2018-09-18T10:31:06.838Z,100432.00
2018-09-18T10:33:34.934Z,100434.00
2018-09-18T10:36:03.745Z,100433.00
2018-09-18T10:38:31.873Z,100418.00
2018-09-18T10:40:59.981Z,100421.00
2018-09-18T10:43:28.137Z,100417.00
2018-09-18T10:45:56.201Z,100419.00
2018-09-18T10:48:24.267Z,100417.00
2018-09-18T10:50:52.392Z,100413.00
2018-09-18T10:53:20.593Z,100410.00
2018-09-18T10:55:48.729Z,100411.00
2018-09-18T10:58:16.775Z,100404.00
2018-09-18T11:00:44.845Z,100385.00
2018-09-18T11:03:12.997Z,100397.00
2018-09-18T11:05:41.071Z,100396.00
2018-09-18T11:08:09.400Z,100400.00
2018-09-18T11:10:37.586Z,100398.00
2018-09-18T11:13:05.727Z,100396.00
2018-09-18T11:15:33.928Z,100391.00
2018-09-18T11:18:02.063Z,100388.00
2018-09-18T11:20:30.211Z,100422.00
2018-09-18T11:22:58.281Z,100387.00
2018-09-18T11:25:26.514Z,100394.00
2018-09-18T11:27:54.617Z,100391.00
2018-09-18T11:30:22.765Z,100381.00
2018-09-18T11:32:51.088Z,100389.00
2018-09-18T11:35:19.253Z,100388.00
2018-09-18T11:37:47.412Z,100387.00
2018-09-18T11:40:15.618Z,100383.00
2018-09-18T11:42:43.797Z,100381.00
2018-09-18T11:45:12.173Z,100376.00
2018-09-18T11:47:40.416Z,100373.00
2018-09-18T11:50:09.022Z,100375.00
2018-09-18T11:52:37.162Z,100375.00
2018-09-18T11:55:05.421Z,100374.00
2018-09-18T11:57:33.998Z,100372.00
2018-09-18T12:00:02.208Z,100371.00
2018-09-18T12:02:30.362Z,100369.00
2018-09-18T12:04:58.478Z,100356.00
2018-09-18T12:07:26.594Z,100370.00
2018-09-18T12:09:54.746Z,100358.00
2018-09-18T12:12:23.041Z,100347.00
2018-09-18T12:14:51.226Z,100358.00
2018-09-18T12:17:19.404Z,100351.00
2018-09-18T12:19:47.623Z,100353.00
2018-09-18T12:22:15.869Z,100354.00
2018-09-18T12:24:44.063Z,100355.00
2018-09-18T12:27:12.295Z,100344.00
2018-09-18T12:29:40.642Z,100344.00
2018-09-18T12:32:09.133Z,100346.00
2018-09-18T12:34:37.610Z,100351.00
2018-09-18T12:37:05.815Z,100346.00
2018-09-18T12:39:33.950Z,100337.00
2018-09-18T12:42:02.340Z,100331.00
2018-09-18T12:44:30.166Z,100337.00
2018-09-18T12:46:58.298Z,100333.00
2018-09-18T12:49:26.593Z,100339.00
2018-09-18T12:51:54.640Z,100331.00
2018-09-18T12:54:22.741Z,100323.00
2018-09-18T12:56:50.850Z,100323.00
2018-09-18T12:59:19.288Z,100318.00
2018-09-18T13:01:47.394Z,100325.00
2018-09-18T13:04:15.643Z,100334.00
2018-09-18T13:06:43.845Z,100322.00
2018-09-18T13:09:12.823Z,100334.00
2018-09-18T13:11:41.077Z,100324.00
2018-09-18T13:14:09.428Z,100319.00
2018-09-18T13:16:37.501Z,100315.00
2018-09-18T13:19:06.155Z,100320.00
2018-09-18T13:21:34.274Z,100256.00
2018-09-18T13:24:02.324Z,100314.00
2018-09-18T13:26:30.566Z,100318.00
2018-09-18T13:28:58.806Z,100315.00
2018-09-18T13:31:27.050Z,100312.00
2018-09-18T13:33:55.421Z,100305.00
2018-09-18T13:36:23.630Z,100305.00
2018-09-18T13:38:51.887Z,100308.00
2018-09-18T13:41:20.107Z,100303.00
2018-09-18T13:43:48.156Z,100291.00
2018-09-18T13:46:16.483Z,100288.00
2018-09-18T13:48:44.705Z,100284.00
2018-09-18T13:51:13.020Z,100279.00
2018-09-18T13:53:41.160Z,100272.00
2018-09-18T13:56:09.341Z,100275.00
2018-09-18T13:58:37.446Z,100268.00
2018-09-18T14:01:05.656Z,100278.00
2018-09-18T14:03:33.768Z,100275.00
2018-09-18T14:06:01.951Z,100277.00
2018-09-18T14:08:30.017Z,100255.00
2018-09-18T14:10:58.123Z,100251.00
2018-09-18T14:13:26.926Z,100257.00
2018-09-18T14:15:55.059Z,100255.00
2018-09-18T14:18:23.205Z,100239.00
2018-09-18T14:20:51.448Z,100253.00
2018-09-18T14:23:19.617Z,100245.00
2018-09-18T14:25:47.815Z,100254.00
2018-09-18T14:28:16.155Z,100248.00
2018-09-18T14:30:44.236Z,100248.00
2018-09-18T14:33:12.820Z,100256.00
2018-09-18T14:35:42.376Z,100252.00
2018-09-18T14:38:10.543Z,100254.00
2018-09-18T14:40:38.832Z,100251.00
2018-09-18T14:43:06.904Z,100255.00
2018-09-18T14:45:35.000Z,100257.00
2018-09-18T14:48:03.170Z,100245.00
2018-09-18T14:50:31.281Z,100247.00
2018-09-18T14:52:59.436Z,100239.00
2018-09-18T14:55:27.621Z,100244.00
2018-09-18T14:57:56.083Z,100237.00
2018-09-18T15:00:24.423Z,100237.00
2018-09-18T15:02:52.671Z,100237.00
2018-09-18T15:05:20.738Z,100233.00
2018-09-18T15:07:48.860Z,100232.00
2018-09-18T15:10:17.205Z,100235.00
2018-09-18T15:12:45.324Z,100227.00
2018-09-18T15:15:13.945Z,100224.00
2018-09-18T15:17:41.967Z,100222.00
2018-09-18T15:20:10.164Z,100231.00
2018-09-18T15:22:38.305Z,100228.00
2018-09-18T15:25:06.620Z,100232.00
2018-09-18T15:27:34.822Z,100234.00
2018-09-18T15:30:02.933Z,100229.00
2018-09-18T15:32:31.870Z,100239.00
2018-09-18T15:35:00.013Z,100240.00
2018-09-18T15:37:28.487Z,100241.00
2018-09-18T15:39:57.945Z,100242.00
2018-09-18T15:42:26.858Z,100243.00
2018-09-18T15:44:55.122Z,100240.00
2018-09-18T15:47:23.391Z,100239.00
2018-09-18T15:49:51.864Z,100240.00
2018-09-18T15:52:20.034Z,100238.00
2018-09-18T15:54:48.095Z,100252.00
2018-09-18T15:57:16.406Z,100251.00
2018-09-18T15:59:44.525Z,100249.00
2018-09-18T16:02:12.799Z,100237.00
2018-09-18T16:04:41.043Z,100248.00
2018-09-18T16:07:09.213Z,100246.00
2018-09-18T16:09:37.442Z,100241.00
2018-09-18T16:12:06.220Z,100237.00
2018-09-18T16:14:34.636Z,100248.00
2018-09-18T16:17:02.934Z,100245.00
2018-09-18T16:19:31.203Z,100244.00
2018-09-18T16:21:59.399Z,100242.00
2018-09-18T16:24:27.582Z,100238.00
2018-09-18T16:26:55.736Z,100242.00
2018-09-18T16:29:24.351Z,100237.00
2018-09-18T16:31:52.578Z,100234.00
2018-09-18T16:34:20.789Z,100245.00
2018-09-18T16:36:48.981Z,100235.00
2018-09-18T16:39:17.234Z,100239.00
2018-09-18T16:41:52.071Z,100225.00
2018-09-18T16:44:20.162Z,100228.00
2018-09-18T16:46:48.383Z,100232.00
2018-09-18T16:49:16.687Z,100236.00
2018-09-18T16:51:44.832Z,100234.00
2018-09-18T16:54:13.038Z,100235.00
2018-09-18T16:56:41.252Z,100235.00
2018-09-18T16:59:09.471Z,100232.00
2018-09-18T17:01:37.617Z,100236.00
2018-09-18T17:04:06.049Z,100241.00
2018-09-18T17:06:34.297Z,100237.00
2018-09-18T17:09:02.583Z,100242.00
2018-09-18T17:11:30.896Z,100241.00
2018-09-18T17:13:59.026Z,100257.00
2018-09-18T17:16:27.250Z,100258.00
2018-09-18T17:18:55.392Z,100264.00
2018-09-18T17:21:23.561Z,100276.00
2018-09-18T17:23:51.754Z,100281.00
2018-09-18T17:26:19.914Z,100282.00
2018-09-18T17:28:48.316Z,100285.00
2018-09-18T17:31:16.321Z,100284.00
2018-09-18T17:33:44.860Z,100288.00
2018-09-18T17:36:13.138Z,100289.00
2018-09-18T17:38:41.414Z,100295.00
2018-09-18T17:41:09.649Z,100290.00
2018-09-18T17:43:37.967Z,100287.00
2018-09-18T17:46:06.363Z,100293.00
2018-09-18T17:48:34.540Z,100289.00
2018-09-18T17:51:02.816Z,100284.00
2018-09-18T17:53:31.044Z,100298.00
2018-09-18T17:56:00.099Z,100294.00
2018-09-18T17:58:28.353Z,100297.00
2018-09-18T18:00:59.513Z,100296.00
2018-09-18T18:03:28.715Z,100302.00
2018-09-18T18:05:56.926Z,100313.00
2018-09-18T18:08:25.171Z,100300.00
2018-09-18T18:10:53.726Z,100312.00
2018-09-18T18:13:21.970Z,100316.00
2018-09-18T18:15:50.449Z,100313.00
2018-09-18T18:18:18.713Z,100326.00
2018-09-18T18:20:47.269Z,100333.00
2018-09-18T18:23:22.184Z,100335.00
2018-09-18T18:25:50.451Z,100335.00
2018-09-18T18:28:19.535Z,100320.00
2018-09-18T18:30:47.874Z,100348.00
2018-09-18T18:33:16.030Z,100340.00
2018-09-18T18:35:44.278Z,100351.00
2018-09-18T18:38:12.465Z,100353.00
2018-09-18T18:40:42.180Z,100357.00
2018-09-18T18:43:10.403Z,100359.00
2018-09-18T18:45:38.777Z,100365.00
2018-09-18T18:48:07.820Z,100364.00
2018-09-18T18:50:35.899Z,100369.00
2018-09-18T18:53:04.214Z,100369.00
2018-09-18T18:55:32.453Z,100375.00
2018-09-18T18:58:00.885Z,100370.00
2018-09-18T19:00:29.281Z,100370.00
2018-09-18T19:02:57.532Z,100376.00
2018-09-18T19:05:26.091Z,100378.00
2018-09-18T19:07:54.773Z,100387.00
2018-09-18T19:10:23.011Z,100379.00
2018-09-18T19:12:51.365Z,100390.00
2018-09-18T19:15:19.872Z,100391.00
2018-09-18T19:17:48.293Z,100395.00
2018-09-18T19:20:16.774Z,100389.00
2018-09-18T19:22:45.109Z,100396.00
2018-09-18T19:25:13.466Z,100394.00
2018-09-18T19:27:41.760Z,100392.00
2018-09-18T19:30:10.040Z,100395.00
2018-09-18T19:32:38.591Z,100399.00
2018-09-18T19:35:07.443Z,100405.00
2018-09-18T19:37:37.355Z,100405.00
2018-09-18T19:40:07.042Z,100405.00
2018-09-18T19:42:35.895Z,100402.00
2018-09-18T19:45:04.970Z,100399.00
2018-09-18T19:47:34.457Z,100402.00
2018-09-18T19:50:03.114Z,100409.00
2018-09-18T19:52:32.026Z,100410.00
2018-09-18T19:55:01.986Z,100401.00
2018-09-18T19:57:30.779Z,100410.00
2018-09-18T20:00:00.022Z,100409.00
2018-09-18T20:02:29.401Z,100409.00
2018-09-18T20:04:57.807Z,100417.00
2018-09-18T20:07:26.095Z,100418.00
2018-09-18T20:09:54.347Z,100425.00
2018-09-18T20:12:23.435Z,100424.00
2018-09-18T20:14:51.721Z,100423.00
2018-09-18T20:17:19.931Z,100433.00
2018-09-18T20:19:48.232Z,100435.00
2018-09-18T20:22:17.097Z,100427.00
2018-09-18T20:24:45.418Z,100428.00
2018-09-18T20:27:14.213Z,100426.00
2018-09-18T20:29:42.548Z,100435.00
2018-09-18T20:32:10.687Z,100432.00
2018-09-18T20:34:39.016Z,100429.00
2018-09-18T20:37:07.279Z,100429.00
2018-09-18T20:39:35.660Z,100437.00
2018-09-18T20:42:03.870Z,100439.00
2018-09-18T20:44:32.120Z,100433.00
2018-09-18T20:47:00.385Z,100434.00
2018-09-18T20:49:28.976Z,100446.00
2018-09-18T20:51:57.166Z,100448.00
2018-09-18T20:54:25.645Z,100454.00
2018-09-18T20:56:53.864Z,100461.00
2018-09-18T20:59:22.119Z,100465.00
2018-09-18T21:01:50.324Z,100462.00
2018-09-18T21:04:18.523Z,100471.00
2018-09-18T21:06:46.766Z,100476.00
2018-09-18T21:09:14.976Z,100473.00
2018-09-18T21:11:43.166Z,100472.00
2018-09-18T21:14:11.337Z,100471.00
2018-09-18T21:16:39.491Z,100476.00
2018-09-18T21:19:07.750Z,100476.00
2018-09-18T21:21:35.919Z,100483.00
2018-09-18T21:24:03.987Z,100485.00
2018-09-18T21:26:32.115Z,100492.00
2018-09-18T21:29:00.237Z,100492.00
2018-09-18T21:31:28.387Z,100504.00
2018-09-18T21:33:56.563Z,100490.00
2018-09-18T21:36:24.706Z,100498.00
2018-09-18T21:38:52.810Z,100510.00
2018-09-18T21:41:21.089Z,100518.00
2018-09-18T21:43:49.314Z,100511.00
2018-09-18T21:46:17.526Z,100508.00
2018-09-18T21:48:45.758Z,100505.00
2018-09-18T21:51:13.913Z,100508.00
2018-09-18T21:53:42.031Z,100518.00
2018-09-18T21:56:10.340Z,100514.00
2018-09-18T21:58:38.489Z,100513.00
2018-09-18T22:01:06.978Z,100507.00
2018-09-18T22:03:35.434Z,100514.00
2018-09-18T22:06:04.824Z,100510.00
2018-09-18T22:08:33.002Z,100509.00
2018-09-18T22:11:01.255Z,100510.00
2018-09-18T22:13:29.963Z,100498.00
2018-09-18T22:15:58.111Z,100509.00
2018-09-18T22:18:26.248Z,100513.00
2018-09-18T22:20:55.166Z,100500.00
2018-09-18T22:23:25.387Z,100504.00
2018-09-18T22:25:54.499Z,100507.00
2018-09-18T22:28:22.611Z,100504.00
2018-09-18T22:30:50.723Z,100505.00
2018-09-18T22:33:19.245Z,100509.00
2018-09-18T22:35:48.442Z,100508.00
2018-09-18T22:38:16.550Z,100502.00
2018-09-18T22:40:44.847Z,100512.00
2018-09-18T22:43:12.957Z,100504.00
2018-09-18T22:45:42.308Z,100501.00
2018-09-18T22:48:10.413Z,100507.00
2018-09-18T22:50:38.479Z,100514.00
2018-09-18T22:53:06.566Z,100509.00
2018-09-18T22:55:34.629Z,100510.00
2018-09-18T22:58:02.939Z,100511.00
2018-09-18T23:00:31.048Z,100516.00
2018-09-18T23:02:59.940Z,100524.00
2018-09-18T23:05:28.083Z,100526.00
2018-09-18T23:07:56.214Z,100529.00
2018-09-18T23:10:24.263Z,100528.00
2018-09-18T23:12:53.019Z,100530.00
2018-09-18T23:15:21.447Z,100529.00
2018-09-18T23:17:49.783Z,100531.00
2018-09-18T23:20:18.627Z,100528.00
2018-09-18T23:22:46.696Z,100531.00
2018-09-18T23:25:14.861Z,100531.00
2018-09-18T23:27:43.099Z,100525.00
2018-09-18T23:30:11.234Z,100518.00
2018-09-18T23:32:39.303Z,100522.00
2018-09-18T23:35:07.423Z,100526.00
2018-09-18T23:37:35.707Z,100531.00
2018-09-18T23:40:03.916Z,100532.00
2018-09-18T23:42:33.573Z,100529.00
2018-09-18T23:45:01.957Z,100538.00
2018-09-18T23:47:30.187Z,100536.00
2018-09-18T23:49:58.588Z,100539.00
2018-09-18T23:52:26.886Z,100528.00
2018-09-18T23:54:55.129Z,100538.00
2018-09-18T23:57:23.189Z,100525.00
2018-09-18T23:59:51.368Z,100539.00
